Terminal Aerodrome Forecast
Issued by NWS New Orleans/Baton Rouge, LA

Home | Current Version | Previous Version | Text Only | Print | Product List | Glossary On
Versions: 1 2 3 4 5 6 7 8 9 10 11 12 13 14
000
FTUS44 KLIX 232340
TAFNEW
TAF
KNEW 232340Z 2400/2424 29010KT P6SM FEW035 BKN250
     FM240600 25009KT P6SM VCTS SCT040CB BKN100
     FM240900 25008KT P6SM SCT025 BKN100 PROB30 2409/2411 4SM TSRA
      BKN020CB
     FM241200 24008KT 6SM -SHRA VCTS SCT025CB BKN090=

USA.gov is the U.S. government's official web portal to all federal, state and local government web resources and services.